sensor_id;sensor_type;location;lat;lon;timestamp;pressure;altitude;pressure_sealevel;temperature;humidity
20019;BME280;10170;42.502;26.526;2022-12-19T00:01:34;101692.97;;;4.65;100.00
20019;BME280;10170;42.502;26.526;2022-12-19T00:04:03;101694.41;;;4.69;100.00
20019;BME280;10170;42.502;26.526;2022-12-19T00:06:35;101706.16;;;4.76;100.00
20019;BME280;10170;42.502;26.526;2022-12-19T00:09:03;101708.19;;;4.72;100.00
20019;BME280;10170;42.502;26.526;2022-12-19T00:11:30;101720.91;;;4.78;100.00
20019;BME280;10170;42.502;26.526;2022-12-19T00:13:58;101721.03;;;4.77;100.00
20019;BME280;10170;42.502;26.526;2022-12-19T00:16:27;101727.59;;;4.82;100.00
20019;BME280;10170;42.502;26.526;2022-12-19T00:18:57;101734.41;;;4.74;100.00
20019;BME280;10170;42.502;26.526;2022-12-19T00:21:27;101742.28;;;4.63;100.00
20019;BME280;10170;42.502;26.526;2022-12-19T00:23:56;101736.41;;;4.59;100.00
20019;BME280;10170;42.502;26.526;2022-12-19T00:26:31;101740.63;;;4.62;100.00
20019;BME280;10170;42.502;26.526;2022-12-19T00:29:01;101731.41;;;4.56;100.00
20019;BME280;10170;42.502;26.526;2022-12-19T00:31:30;101730.78;;;4.53;100.00
20019;BME280;10170;42.502;26.526;2022-12-19T00:33:57;101737.63;;;4.55;100.00
20019;BME280;10170;42.502;26.526;2022-12-19T00:36:29;101737.63;;;4.55;100.00
20019;BME280;10170;42.502;26.526;2022-12-19T00:38:58;101745.06;;;4.61;100.00
20019;BME280;10170;42.502;26.526;2022-12-19T00:41:27;101737.50;;;4.57;100.00
20019;BME280;10170;42.502;26.526;2022-12-19T00:43:59;101739.91;;;4.60;100.00
20019;BME280;10170;42.502;26.526;2022-12-19T00:46:28;101739.53;;;4.53;100.00
20019;BME280;10170;42.502;26.526;2022-12-19T00:48:56;101745.66;;;4.65;100.00
20019;BME280;10170;42.502;26.526;2022-12-19T00:51:25;101738.00;;;4.62;100.00
20019;BME280;10170;42.502;26.526;2022-12-19T00:53:54;101744.13;;;4.62;100.00
20019;BME280;10170;42.502;26.526;2022-12-19T00:56:28;101740.38;;;4.65;100.00
20019;BME280;10170;42.502;26.526;2022-12-19T00:58:56;101741.69;;;4.59;100.00
20019;BME280;10170;42.502;26.526;2022-12-19T01:01:29;101742.50;;;4.49;100.00
20019;BME280;10170;42.502;26.526;2022-12-19T01:03:57;101729.53;;;4.35;100.00
20019;BME280;10170;42.502;26.526;2022-12-19T01:06:44;101740.84;;;4.48;100.00
20019;BME280;10170;42.502;26.526;2022-12-19T01:09:11;101740.34;;;4.43;100.00
20019;BME280;10170;42.502;26.526;2022-12-19T01:11:38;101744.28;;;4.48;100.00
20019;BME280;10170;42.502;26.526;2022-12-19T01:14:24;101743.84;;;4.54;100.00
20019;BME280;10170;42.502;26.526;2022-12-19T01:16:51;101742.47;;;4.38;100.00
20019;BME280;10170;42.502;26.526;2022-12-19T01:19:18;101744.97;;;4.28;100.00
20019;BME280;10170;42.502;26.526;2022-12-19T01:21:45;101744.00;;;4.29;100.00
20019;BME280;10170;42.502;26.526;2022-12-19T01:24:12;101748.41;;;4.28;100.00
20019;BME280;10170;42.502;26.526;2022-12-19T01:26:44;101743.38;;;4.25;100.00
20019;BME280;10170;42.502;26.526;2022-12-19T01:29:11;101749.94;;;4.20;100.00
20019;BME280;10170;42.502;26.526;2022-12-19T01:31:37;101755.81;;;4.23;100.00
20019;BME280;10170;42.502;26.526;2022-12-19T01:34:04;101746.50;;;4.30;100.00
20019;BME280;10170;42.502;26.526;2022-12-19T01:36:31;101752.31;;;4.36;100.00
20019;BME280;10170;42.502;26.526;2022-12-19T01:39:05;101754.22;;;4.34;100.00
20019;BME280;10170;42.502;26.526;2022-12-19T01:41:31;101752.09;;;4.15;100.00
20019;BME280;10170;42.502;26.526;2022-12-19T01:44:03;101754.16;;;4.22;100.00
20019;BME280;10170;42.502;26.526;2022-12-19T01:46:40;101755.44;;;4.17;100.00
20019;BME280;10170;42.502;26.526;2022-12-19T01:49:21;101751.59;;;4.10;100.00
20019;BME280;10170;42.502;26.526;2022-12-19T01:51:52;101744.13;;;4.04;100.00
20019;BME280;10170;42.502;26.526;2022-12-19T01:54:23;101757.34;;;4.15;100.00
20019;BME280;10170;42.502;26.526;2022-12-19T01:56:52;101743.19;;;4.05;100.00
20019;BME280;10170;42.502;26.526;2022-12-19T01:59:27;101752.25;;;4.01;100.00
20019;BME280;10170;42.502;26.526;2022-12-19T02:01:59;101754.03;;;4.00;100.00
20019;BME280;10170;42.502;26.526;2022-12-19T02:04:27;101759.44;;;3.99;100.00
20019;BME280;10170;42.502;26.526;2022-12-19T02:06:58;101760.16;;;4.01;100.00
20019;BME280;10170;42.502;26.526;2022-12-19T02:09:44;101748.59;;;3.91;100.00
20019;BME280;10170;42.502;26.526;2022-12-19T02:12:11;101756.41;;;3.92;100.00
20019;BME280;10170;42.502;26.526;2022-12-19T02:14:39;101754.66;;;3.80;100.00
20019;BME280;10170;42.502;26.526;2022-12-19T02:23:35;101753.72;;;3.81;100.00
20019;BME280;10170;42.502;26.526;2022-12-19T02:31:37;101743.28;;;3.56;100.00
20019;BME280;10170;42.502;26.526;2022-12-19T02:36:52;101769.44;;;3.70;100.00
20019;BME280;10170;42.502;26.526;2022-12-19T02:39:25;101782.81;;;3.67;100.00
20019;BME280;10170;42.502;26.526;2022-12-19T02:42:00;101779.31;;;3.67;100.00
20019;BME280;10170;42.502;26.526;2022-12-19T02:44:35;101777.56;;;3.55;100.00
20019;BME280;10170;42.502;26.526;2022-12-19T02:47:04;101770.00;;;3.50;100.00
20019;BME280;10170;42.502;26.526;2022-12-19T02:49:34;101771.88;;;3.48;100.00
20019;BME280;10170;42.502;26.526;2022-12-19T02:52:12;101785.34;;;3.56;100.00
20019;BME280;10170;42.502;26.526;2022-12-19T02:55:02;101763.50;;;3.43;100.00
20019;BME280;10170;42.502;26.526;2022-12-19T02:58:07;101787.25;;;3.54;100.00
20019;BME280;10170;42.502;26.526;2022-12-19T03:00:25;101794.16;;;3.55;100.00
20019;BME280;10170;42.502;26.526;2022-12-19T03:05:52;101809.19;;;3.66;100.00
20019;BME280;10170;42.502;26.526;2022-12-19T03:08:23;101809.13;;;3.55;100.00
20019;BME280;10170;42.502;26.526;2022-12-19T03:15:51;101811.44;;;3.59;100.00
20019;BME280;10170;42.502;26.526;2022-12-19T03:18:19;101817.09;;;3.53;100.00
20019;BME280;10170;42.502;26.526;2022-12-19T03:20:53;101815.53;;;3.63;100.00
20019;BME280;10170;42.502;26.526;2022-12-19T03:23:26;101807.78;;;3.49;100.00
20019;BME280;10170;42.502;26.526;2022-12-19T03:25:55;101781.28;;;3.27;100.00
20019;BME280;10170;42.502;26.526;2022-12-19T03:28:28;101807.06;;;3.35;100.00
20019;BME280;10170;42.502;26.526;2022-12-19T03:30:59;101817.97;;;3.41;100.00
20019;BME280;10170;42.502;26.526;2022-12-19T03:33:28;101822.38;;;3.41;100.00
20019;BME280;10170;42.502;26.526;2022-12-19T03:35:59;101820.59;;;3.41;100.00
20019;BME280;10170;42.502;26.526;2022-12-19T03:38:30;101821.34;;;3.43;100.00
20019;BME280;10170;42.502;26.526;2022-12-19T03:40:58;101823.34;;;3.40;100.00
20019;BME280;10170;42.502;26.526;2022-12-19T03:43:27;101823.97;;;3.31;100.00
20019;BME280;10170;42.502;26.526;2022-12-19T03:46:08;101828.59;;;3.27;100.00
20019;BME280;10170;42.502;26.526;2022-12-19T03:48:45;101831.22;;;3.27;100.00
20019;BME280;10170;42.502;26.526;2022-12-19T03:54:28;101805.16;;;2.99;100.00
20019;BME280;10170;42.502;26.526;2022-12-19T03:57:09;101823.75;;;3.21;100.00
20019;BME280;10170;42.502;26.526;2022-12-19T04:02:17;101828.31;;;3.19;100.00
20019;BME280;10170;42.502;26.526;2022-12-19T04:04:58;101815.88;;;2.96;100.00
20019;BME280;10170;42.502;26.526;2022-12-19T04:07:26;101833.22;;;2.98;100.00
20019;BME280;10170;42.502;26.526;2022-12-19T04:09:54;101836.19;;;2.94;100.00
20019;BME280;10170;42.502;26.526;2022-12-19T04:12:29;101839.31;;;2.86;100.00
20019;BME280;10170;42.502;26.526;2022-12-19T04:14:59;101841.69;;;2.77;100.00
20019;BME280;10170;42.502;26.526;2022-12-19T04:17:46;101840.66;;;2.79;100.00
20019;BME280;10170;42.502;26.526;2022-12-19T04:20:20;101854.09;;;2.75;100.00
20019;BME280;10170;42.502;26.526;2022-12-19T04:25:32;101871.09;;;2.69;100.00
20019;BME280;10170;42.502;26.526;2022-12-19T04:28:09;101872.34;;;2.64;100.00
20019;BME280;10170;42.502;26.526;2022-12-19T04:30:53;101875.38;;;2.58;100.00
20019;BME280;10170;42.502;26.526;2022-12-19T04:33:20;101863.59;;;2.51;100.00
20019;BME280;10170;42.502;26.526;2022-12-19T04:35:47;101855.25;;;2.44;100.00
20019;BME280;10170;42.502;26.526;2022-12-19T04:38:14;101866.06;;;2.40;100.00
20019;BME280;10170;42.502;26.526;2022-12-19T04:40:42;101874.09;;;2.51;100.00
20019;BME280;10170;42.502;26.526;2022-12-19T04:43:09;101850.53;;;2.23;100.00
20019;BME280;10170;42.502;26.526;2022-12-19T04:45:36;101870.41;;;2.27;100.00
20019;BME280;10170;42.502;26.526;2022-12-19T04:48:03;101861.19;;;2.07;100.00
20019;BME280;10170;42.502;26.526;2022-12-19T04:50:32;101877.78;;;2.07;100.00
20019;BME280;10170;42.502;26.526;2022-12-19T04:53:00;101883.41;;;2.01;100.00
20019;BME280;10170;42.502;26.526;2022-12-19T04:55:26;101874.13;;;1.96;100.00
20019;BME280;10170;42.502;26.526;2022-12-19T04:57:53;101884.72;;;1.94;100.00
20019;BME280;10170;42.502;26.526;2022-12-19T05:00:20;101888.66;;;2.01;100.00
20019;BME280;10170;42.502;26.526;2022-12-19T05:02:47;101888.94;;;1.83;100.00
20019;BME280;10170;42.502;26.526;2022-12-19T05:05:14;101884.94;;;1.77;100.00
20019;BME280;10170;42.502;26.526;2022-12-19T05:07:41;101897.78;;;1.68;100.00
20019;BME280;10170;42.502;26.526;2022-12-19T05:10:09;101897.56;;;1.57;100.00
20019;BME280;10170;42.502;26.526;2022-12-19T05:12:35;101900.94;;;1.59;100.00
20019;BME280;10170;42.502;26.526;2022-12-19T05:15:03;101906.66;;;1.51;100.00
20019;BME280;10170;42.502;26.526;2022-12-19T05:17:30;101910.47;;;1.32;100.00
20019;BME280;10170;42.502;26.526;2022-12-19T05:19:57;101909.56;;;1.33;100.00
20019;BME280;10170;42.502;26.526;2022-12-19T05:22:23;101912.53;;;1.27;100.00
20019;BME280;10170;42.502;26.526;2022-12-19T05:24:50;101924.13;;;1.37;100.00
20019;BME280;10170;42.502;26.526;2022-12-19T05:27:17;101921.81;;;1.32;100.00
20019;BME280;10170;42.502;26.526;2022-12-19T05:29:44;101924.25;;;1.49;100.00
20019;BME280;10170;42.502;26.526;2022-12-19T05:32:10;101929.69;;;1.46;100.00
20019;BME280;10170;42.502;26.526;2022-12-19T05:34:37;101942.69;;;1.62;100.00
20019;BME280;10170;42.502;26.526;2022-12-19T05:37:04;101942.03;;;1.58;100.00
20019;BME280;10170;42.502;26.526;2022-12-19T05:39:30;101929.41;;;1.51;100.00
20019;BME280;10170;42.502;26.526;2022-12-19T05:41:57;101940.47;;;1.56;100.00
20019;BME280;10170;42.502;26.526;2022-12-19T05:44:25;101941.66;;;1.36;100.00
20019;BME280;10170;42.502;26.526;2022-12-19T05:46:52;101946.38;;;1.45;100.00
20019;BME280;10170;42.502;26.526;2022-12-19T05:49:18;101945.59;;;1.43;100.00
20019;BME280;10170;42.502;26.526;2022-12-19T05:51:45;101950.66;;;1.60;100.00
20019;BME280;10170;42.502;26.526;2022-12-19T05:54:12;101923.47;;;1.33;100.00
20019;BME280;10170;42.502;26.526;2022-12-19T05:56:39;101961.16;;;1.60;100.00
20019;BME280;10170;42.502;26.526;2022-12-19T05:59:05;101967.53;;;1.70;100.00
20019;BME280;10170;42.502;26.526;2022-12-19T06:01:32;101969.31;;;1.56;100.00
20019;BME280;10170;42.502;26.526;2022-12-19T06:03:59;101967.34;;;1.59;100.00
20019;BME280;10170;42.502;26.526;2022-12-19T06:06:26;101975.78;;;1.64;100.00
20019;BME280;10170;42.502;26.526;2022-12-19T06:08:54;101977.28;;;1.68;100.00
20019;BME280;10170;42.502;26.526;2022-12-19T06:11:22;101987.69;;;1.70;100.00
20019;BME280;10170;42.502;26.526;2022-12-19T06:13:49;101993.09;;;1.67;100.00
20019;BME280;10170;42.502;26.526;2022-12-19T06:16:17;101991.06;;;1.72;100.00
20019;BME280;10170;42.502;26.526;2022-12-19T06:18:45;101985.50;;;1.62;100.00
20019;BME280;10170;42.502;26.526;2022-12-19T06:21:17;101987.03;;;1.66;100.00
20019;BME280;10170;42.502;26.526;2022-12-19T06:23:45;101994.78;;;1.68;100.00
20019;BME280;10170;42.502;26.526;2022-12-19T06:26:14;102011.19;;;1.71;100.00
20019;BME280;10170;42.502;26.526;2022-12-19T06:28:46;102002.78;;;1.51;100.00
20019;BME280;10170;42.502;26.526;2022-12-19T06:31:13;102014.56;;;1.44;100.00
20019;BME280;10170;42.502;26.526;2022-12-19T06:33:41;102014.66;;;1.42;100.00
20019;BME280;10170;42.502;26.526;2022-12-19T06:36:17;102011.13;;;1.43;100.00
20019;BME280;10170;42.502;26.526;2022-12-19T06:38:45;102012.75;;;1.60;100.00
20019;BME280;10170;42.502;26.526;2022-12-19T06:41:13;102023.41;;;1.57;100.00
20019;BME280;10170;42.502;26.526;2022-12-19T06:44:00;102024.94;;;1.61;100.00
20019;BME280;10170;42.502;26.526;2022-12-19T06:46:27;102029.09;;;1.79;100.00
20019;BME280;10170;42.502;26.526;2022-12-19T06:48:54;102034.00;;;2.13;100.00
20019;BME280;10170;42.502;26.526;2022-12-19T06:51:21;102045.44;;;2.40;100.00
20019;BME280;10170;42.502;26.526;2022-12-19T06:53:48;102053.41;;;2.53;100.00
20019;BME280;10170;42.502;26.526;2022-12-19T06:56:16;102058.88;;;3.03;100.00
20019;BME280;10170;42.502;26.526;2022-12-19T06:58:43;102065.31;;;2.99;100.00
20019;BME280;10170;42.502;26.526;2022-12-19T07:01:39;102067.56;;;3.32;100.00
20019;BME280;10170;42.502;26.526;2022-12-19T07:04:10;102079.53;;;3.09;100.00
20019;BME280;10170;42.502;26.526;2022-12-19T07:06:39;102073.25;;;3.11;100.00
20019;BME280;10170;42.502;26.526;2022-12-19T07:09:12;102052.97;;;3.13;100.00
20019;BME280;10170;42.502;26.526;2022-12-19T07:11:39;102082.31;;;3.20;100.00
20019;BME280;10170;42.502;26.526;2022-12-19T07:14:05;102092.25;;;3.29;100.00
20019;BME280;10170;42.502;26.526;2022-12-19T07:16:35;102083.47;;;3.55;100.00
20019;BME280;10170;42.502;26.526;2022-12-19T07:19:03;102095.09;;;3.65;100.00
20019;BME280;10170;42.502;26.526;2022-12-19T07:21:30;102087.94;;;3.55;100.00
20019;BME280;10170;42.502;26.526;2022-12-19T07:23:58;102088.47;;;3.60;100.00
20019;BME280;10170;42.502;26.526;2022-12-19T07:26:25;102087.91;;;3.94;100.00
20019;BME280;10170;42.502;26.526;2022-12-19T07:28:52;102102.13;;;4.16;100.00
20019;BME280;10170;42.502;26.526;2022-12-19T07:31:19;102095.13;;;3.78;100.00
20019;BME280;10170;42.502;26.526;2022-12-19T07:33:46;102095.94;;;3.78;100.00
20019;BME280;10170;42.502;26.526;2022-12-19T07:36:12;102109.06;;;3.92;100.00
20019;BME280;10170;42.502;26.526;2022-12-19T07:38:39;102112.50;;;3.93;100.00
20019;BME280;10170;42.502;26.526;2022-12-19T07:41:06;102115.00;;;4.21;100.00
20019;BME280;10170;42.502;26.526;2022-12-19T07:43:32;102114.75;;;3.99;100.00
20019;BME280;10170;42.502;26.526;2022-12-19T07:45:59;102120.66;;;4.15;100.00
20019;BME280;10170;42.502;26.526;2022-12-19T07:48:26;102097.59;;;4.18;100.00
20019;BME280;10170;42.502;26.526;2022-12-19T07:50:54;102112.44;;;4.19;100.00
20019;BME280;10170;42.502;26.526;2022-12-19T07:53:20;102115.00;;;4.21;100.00
20019;BME280;10170;42.502;26.526;2022-12-19T07:55:51;102089.06;;;4.15;100.00
20019;BME280;10170;42.502;26.526;2022-12-19T07:58:17;102119.06;;;4.12;100.00
20019;BME280;10170;42.502;26.526;2022-12-19T08:00:44;102124.94;;;3.91;100.00
20019;BME280;10170;42.502;26.526;2022-12-19T08:03:11;102132.31;;;3.33;100.00
20019;BME280;10170;42.502;26.526;2022-12-19T08:05:38;102127.03;;;3.47;100.00
20019;BME280;10170;42.502;26.526;2022-12-19T08:08:04;102135.84;;;3.19;100.00
20019;BME280;10170;42.502;26.526;2022-12-19T08:10:31;102140.47;;;3.01;100.00
20019;BME280;10170;42.502;26.526;2022-12-19T08:12:58;102128.88;;;2.77;100.00
20019;BME280;10170;42.502;26.526;2022-12-19T08:15:24;102146.50;;;2.89;100.00
20019;BME280;10170;42.502;26.526;2022-12-19T08:17:53;102147.03;;;2.94;100.00
20019;BME280;10170;42.502;26.526;2022-12-19T08:20:20;102077.56;;;2.72;100.00
20019;BME280;10170;42.502;26.526;2022-12-19T08:22:46;102146.53;;;3.16;100.00
20019;BME280;10170;42.502;26.526;2022-12-19T08:25:13;102140.50;;;3.28;100.00
20019;BME280;10170;42.502;26.526;2022-12-19T08:27:40;102148.97;;;3.60;100.00
20019;BME280;10170;42.502;26.526;2022-12-19T08:30:08;102150.31;;;3.53;100.00
20019;BME280;10170;42.502;26.526;2022-12-19T08:32:35;102144.75;;;4.09;100.00
20019;BME280;10170;42.502;26.526;2022-12-19T08:35:02;102138.59;;;4.48;100.00
20019;BME280;10170;42.502;26.526;2022-12-19T08:37:28;102146.50;;;4.48;100.00
20019;BME280;10170;42.502;26.526;2022-12-19T08:39:55;102135.44;;;4.68;100.00
20019;BME280;10170;42.502;26.526;2022-12-19T08:42:22;102134.84;;;4.75;100.00
20019;BME280;10170;42.502;26.526;2022-12-19T08:44:49;102135.59;;;4.90;100.00
20019;BME280;10170;42.502;26.526;2022-12-19T08:47:15;102138.91;;;5.17;100.00
20019;BME280;10170;42.502;26.526;2022-12-19T08:49:42;102144.84;;;4.95;100.00
20019;BME280;10170;42.502;26.526;2022-12-19T08:52:09;102142.22;;;5.31;100.00
20019;BME280;10170;42.502;26.526;2022-12-19T08:54:35;102140.66;;;5.76;100.00
20019;BME280;10170;42.502;26.526;2022-12-19T08:57:02;102132.50;;;5.79;100.00
20019;BME280;10170;42.502;26.526;2022-12-19T08:59:29;102125.44;;;5.32;100.00
20019;BME280;10170;42.502;26.526;2022-12-19T09:01:59;102133.09;;;5.48;100.00
20019;BME280;10170;42.502;26.526;2022-12-19T09:04:27;102123.44;;;5.83;100.00
20019;BME280;10170;42.502;26.526;2022-12-19T09:07:14;102120.38;;;5.29;100.00
20019;BME280;10170;42.502;26.526;2022-12-19T09:09:42;102118.50;;;4.83;100.00
20019;BME280;10170;42.502;26.526;2022-12-19T09:12:09;102121.16;;;5.19;100.00
20019;BME280;10170;42.502;26.526;2022-12-19T09:14:37;102121.44;;;5.27;100.00
20019;BME280;10170;42.502;26.526;2022-12-19T09:17:04;102119.72;;;5.62;100.00
20019;BME280;10170;42.502;26.526;2022-12-19T09:19:31;102117.75;;;5.53;100.00
20019;BME280;10170;42.502;26.526;2022-12-19T09:21:58;102122.28;;;5.27;100.00
20019;BME280;10170;42.502;26.526;2022-12-19T09:24:24;102122.19;;;5.29;100.00
20019;BME280;10170;42.502;26.526;2022-12-19T09:26:51;102107.16;;;5.42;100.00
20019;BME280;10170;42.502;26.526;2022-12-19T09:29:18;102108.38;;;5.73;100.00
20019;BME280;10170;42.502;26.526;2022-12-19T09:31:48;102114.34;;;5.87;100.00
20019;BME280;10170;42.502;26.526;2022-12-19T09:34:24;102116.91;;;5.53;100.00
20019;BME280;10170;42.502;26.526;2022-12-19T09:37:10;102113.28;;;5.43;100.00
20019;BME280;10170;42.502;26.526;2022-12-19T09:39:44;102104.56;;;5.53;100.00
20019;BME280;10170;42.502;26.526;2022-12-19T09:47:59;102110.34;;;5.58;100.00
20019;BME280;10170;42.502;26.526;2022-12-19T09:50:53;102101.81;;;5.55;100.00
20019;BME280;10170;42.502;26.526;2022-12-19T09:53:41;102095.06;;;5.51;100.00
20019;BME280;10170;42.502;26.526;2022-12-19T09:56:19;102097.75;;;5.62;100.00
20019;BME280;10170;42.502;26.526;2022-12-19T09:58:53;102093.84;;;5.44;100.00
20019;BME280;10170;42.502;26.526;2022-12-19T10:01:27;102081.31;;;5.58;100.00
20019;BME280;10170;42.502;26.526;2022-12-19T10:06:30;102078.38;;;5.39;100.00
20019;BME280;10170;42.502;26.526;2022-12-19T10:09:19;102088.44;;;5.45;100.00
20019;BME280;10170;42.502;26.526;2022-12-19T10:12:39;102081.06;;;5.61;100.00
20019;BME280;10170;42.502;26.526;2022-12-19T10:20:32;102078.63;;;6.05;100.00
20019;BME280;10170;42.502;26.526;2022-12-19T10:25:59;102080.56;;;6.14;100.00
20019;BME280;10170;42.502;26.526;2022-12-19T10:28:44;102072.13;;;5.98;100.00
20019;BME280;10170;42.502;26.526;2022-12-19T10:31:21;102071.50;;;5.84;100.00
20019;BME280;10170;42.502;26.526;2022-12-19T10:33:56;102069.75;;;6.17;100.00
20019;BME280;10170;42.502;26.526;2022-12-19T10:36:29;102072.47;;;5.94;100.00
20019;BME280;10170;42.502;26.526;2022-12-19T10:39:35;102070.44;;;5.97;100.00
20019;BME280;10170;42.502;26.526;2022-12-19T10:42:16;102070.81;;;6.04;100.00
20019;BME280;10170;42.502;26.526;2022-12-19T10:44:46;102062.69;;;6.73;100.00
20019;BME280;10170;42.502;26.526;2022-12-19T10:47:15;102064.00;;;6.46;100.00
20019;BME280;10170;42.502;26.526;2022-12-19T10:49:42;102060.63;;;7.30;100.00
20019;BME280;10170;42.502;26.526;2022-12-19T10:52:10;102064.69;;;6.92;100.00
20019;BME280;10170;42.502;26.526;2022-12-19T10:54:40;102036.16;;;6.42;95.00
20019;BME280;10170;42.502;26.526;2022-12-19T10:57:27;102021.34;;;6.61;95.40
20019;BME280;10170;42.502;26.526;2022-12-19T11:00:14;102048.47;;;6.85;95.45
20019;BME280;10170;42.502;26.526;2022-12-19T11:02:47;102044.56;;;6.47;93.01
20019;BME280;10170;42.502;26.526;2022-12-19T11:05:51;102054.16;;;6.48;94.71
20019;BME280;10170;42.502;26.526;2022-12-19T11:08:31;102047.25;;;6.01;96.83
20019;BME280;10170;42.502;26.526;2022-12-19T11:13:49;102057.94;;;5.65;88.85
20019;BME280;10170;42.502;26.526;2022-12-19T11:16:36;102050.91;;;5.76;94.77
20019;BME280;10170;42.502;26.526;2022-12-19T11:19:35;102037.78;;;5.87;95.61
20019;BME280;10170;42.502;26.526;2022-12-19T11:22:26;102037.16;;;5.84;91.97
20019;BME280;10170;42.502;26.526;2022-12-19T11:25:17;102032.28;;;6.01;90.82
20019;BME280;10170;42.502;26.526;2022-12-19T11:31:22;102025.81;;;6.05;87.51
20019;BME280;10170;42.502;26.526;2022-12-19T11:34:15;102040.81;;;5.70;92.50
20019;BME280;10170;42.502;26.526;2022-12-19T11:39:21;102021.22;;;5.96;93.65
20019;BME280;10170;42.502;26.526;2022-12-19T11:42:11;102036.41;;;5.47;91.99
20019;BME280;10170;42.502;26.526;2022-12-19T11:47:43;102038.88;;;5.96;92.69
20019;BME280;10170;42.502;26.526;2022-12-19T11:50:26;102050.66;;;5.68;90.76
20019;BME280;10170;42.502;26.526;2022-12-19T11:53:13;102042.59;;;5.59;92.14
20019;BME280;10170;42.502;26.526;2022-12-19T11:55:54;102046.22;;;5.45;90.50
20019;BME280;10170;42.502;26.526;2022-12-19T11:58:25;102041.16;;;5.66;86.80
20019;BME280;10170;42.502;26.526;2022-12-19T12:03:59;102030.25;;;5.70;87.86
20019;BME280;10170;42.502;26.526;2022-12-19T12:06:51;102033.81;;;5.00;90.87
20019;BME280;10170;42.502;26.526;2022-12-19T12:09:56;102035.97;;;5.06;93.71
20019;BME280;10170;42.502;26.526;2022-12-19T12:16:01;102041.56;;;4.78;99.04
20019;BME280;10170;42.502;26.526;2022-12-19T12:19:23;102044.44;;;4.75;92.93
20019;BME280;10170;42.502;26.526;2022-12-19T12:25:35;102034.16;;;4.83;94.32
20019;BME280;10170;42.502;26.526;2022-12-19T12:28:35;102039.41;;;4.95;94.26
20019;BME280;10170;42.502;26.526;2022-12-19T12:31:27;102031.84;;;4.55;97.24
20019;BME280;10170;42.502;26.526;2022-12-19T12:43:45;102040.75;;;4.65;100.00
20019;BME280;10170;42.502;26.526;2022-12-19T12:46:22;102041.44;;;4.30;100.00
20019;BME280;10170;42.502;26.526;2022-12-19T12:51:18;102043.66;;;3.86;100.00
20019;BME280;10170;42.502;26.526;2022-12-19T12:53:46;102034.41;;;3.93;100.00
20019;BME280;10170;42.502;26.526;2022-12-19T12:56:16;102025.25;;;3.86;100.00
20019;BME280;10170;42.502;26.526;2022-12-19T13:04:20;102051.22;;;3.66;100.00
20019;BME280;10170;42.502;26.526;2022-12-19T13:17:08;102055.94;;;3.61;100.00
20019;BME280;10170;42.502;26.526;2022-12-19T13:19:55;102072.44;;;3.50;100.00
20019;BME280;10170;42.502;26.526;2022-12-19T13:22:37;102065.28;;;3.52;100.00
20019;BME280;10170;42.502;26.526;2022-12-19T13:30:30;102071.25;;;3.42;100.00
20019;BME280;10170;42.502;26.526;2022-12-19T13:33:17;102081.13;;;3.38;100.00
20019;BME280;10170;42.502;26.526;2022-12-19T13:35:44;102074.06;;;3.26;100.00
20019;BME280;10170;42.502;26.526;2022-12-19T13:38:43;102076.47;;;3.29;100.00
20019;BME280;10170;42.502;26.526;2022-12-19T13:41:39;102085.09;;;3.31;100.00
20019;BME280;10170;42.502;26.526;2022-12-19T13:44:41;102078.56;;;3.24;100.00
20019;BME280;10170;42.502;26.526;2022-12-19T13:47:10;102076.38;;;3.31;100.00
20019;BME280;10170;42.502;26.526;2022-12-19T13:49:44;102048.31;;;3.04;100.00
20019;BME280;10170;42.502;26.526;2022-12-19T13:52:11;102085.16;;;3.17;100.00
20019;BME280;10170;42.502;26.526;2022-12-19T13:54:47;102085.44;;;3.12;100.00
20019;BME280;10170;42.502;26.526;2022-12-19T13:57:30;102071.44;;;3.12;100.00
20019;BME280;10170;42.502;26.526;2022-12-19T14:00:01;102076.81;;;3.10;100.00
20019;BME280;10170;42.502;26.526;2022-12-19T14:02:36;102085.09;;;3.04;100.00
20019;BME280;10170;42.502;26.526;2022-12-19T14:05:37;102085.59;;;2.97;100.00
20019;BME280;10170;42.502;26.526;2022-12-19T14:08:26;102072.81;;;2.91;100.00
20019;BME280;10170;42.502;26.526;2022-12-19T14:10:54;102071.69;;;2.95;100.00
20019;BME280;10170;42.502;26.526;2022-12-19T14:13:50;102072.38;;;2.84;100.00
20019;BME280;10170;42.502;26.526;2022-12-19T14:16:47;102072.56;;;2.81;100.00
20019;BME280;10170;42.502;26.526;2022-12-19T14:19:25;102069.13;;;2.67;100.00
20019;BME280;10170;42.502;26.526;2022-12-19T14:21:53;102080.97;;;2.60;100.00
20019;BME280;10170;42.502;26.526;2022-12-19T14:24:40;102081.59;;;2.63;100.00
20019;BME280;10170;42.502;26.526;2022-12-19T14:27:13;102066.53;;;2.53;100.00
20019;BME280;10170;42.502;26.526;2022-12-19T14:30:05;102075.69;;;2.60;100.00
20019;BME280;10170;42.502;26.526;2022-12-19T14:32:53;102072.69;;;2.52;100.00
20019;BME280;10170;42.502;26.526;2022-12-19T14:35:46;102068.28;;;2.52;100.00
20019;BME280;10170;42.502;26.526;2022-12-19T14:38:35;101988.44;;;2.00;100.00
20019;BME280;10170;42.502;26.526;2022-12-19T14:44:15;102070.28;;;2.35;100.00
20019;BME280;10170;42.502;26.526;2022-12-19T14:47:09;102057.78;;;2.24;100.00
20019;BME280;10170;42.502;26.526;2022-12-19T14:49:56;102066.25;;;2.29;100.00
20019;BME280;10170;42.502;26.526;2022-12-19T14:52:44;102060.69;;;2.20;100.00
20019;BME280;10170;42.502;26.526;2022-12-19T14:55:36;102061.06;;;2.13;100.00
20019;BME280;10170;42.502;26.526;2022-12-19T14:58:35;102062.25;;;2.08;100.00